Latest Weather Observations for Ballarat

IDV60801

Issued at 3:32 pm EDT Saturday 22 February 2020 (issued every 10 minutes, with the page automatically refreshed every 10 minutes)

About weather observations | Map of weather stations | Latest weather observations for VIC | Other Formats
Station Details ID: 089002 Name: BALLARAT AERODROME Lat: -37.51 Lon: 143.79 Height: 435.2 m
Data from the previous 72 hours. | See also: Recent months at Ballarat
Date/Time
EDT
Temp
°C
App
Temp
°C
Dew
Point
°C
Rel
Hum
%
Delta-T
°C
Wind Press
QNH
hPa
Press
MSL
hPa
Rain since
9am
mm
Dir  Spd
km/h
Gust
km/h
Spd
kts
Gust
kts
22/03:30pm 21.3 16.6 7.9 42 7.1 SSE 22 32 12 17 1021.6 1020.3 0.0
22/03:00pm 21.4 17.1 8.0 42 7.1 SE 20 39 11 21 1021.8 1020.5 0.0
22/02:30pm 21.3 17.4 8.6 44 6.8 SE 19 28 10 15 1022.0 1020.7 0.0
22/02:00pm 20.1 16.2 7.1 43 6.7 SE 17 28 9 15 1022.3 1021.0 0.0
22/01:30pm 20.3 17.4 8.3 46 6.4 ESE 13 20 7 11 1022.4 1021.1 0.0
22/01:00pm 19.4 15.1 7.8 47 6.1 SE 20 30 11 16 1022.8 1021.5 0.0
22/12:30pm 18.5 13.8 7.6 49 5.7 SE 22 33 12 18 1023.3 1021.9 0.0
22/12:00pm 18.5 13.9 8.2 51 5.4 SE 22 33 12 18 1023.6 1022.3 0.0
22/11:30am 17.4 12.3 7.5 52 5.1 SE 24 35 13 19 1023.6 1022.3 0.0
22/11:00am 16.3 10.0 7.3 55 4.6 SE 30 39 16 21 1023.6 1022.3 0.0
22/10:30am 16.2 9.3 6.6 53 4.8 SE 32 41 17 22 1023.4 1022.1 0.0
22/10:00am 15.0 8.1 7.1 59 4.0 SE 33 41 18 22 1023.2 1021.8 0.0
22/09:30am 14.5 8.6 7.3 62 3.6 ESE 28 37 15 20 1023.1 1021.7 0.0
22/09:00am 12.9 6.2 8.0 72 2.5 SE 33 43 18 23 1023.1 1021.7 0.0
22/08:30am 12.1 6.8 8.6 79 1.8 SE 26 33 14 18 1023.0 1021.6 0.0
22/08:00am 11.2 5.6 8.9 86 1.2 SE 28 39 15 21 1022.4 1021.1 0.0
22/07:30am 10.5 5.0 9.3 92 0.6 SE 28 35 15 19 1022.0 1020.7 0.0
22/07:00am 9.8 5.1 9.3 97 0.3 SE 24 33 13 18 1021.7 1020.4 0.0
22/06:30am 9.6 4.8 9.0 96 0.3 SSE 24 32 13 17 1021.6 1020.3 0.0
22/06:00am 9.5 4.6 8.4 93 0.5 SSE 24 32 13 17 1021.5 1020.2 0.0
22/05:30am 9.7 4.8 8.5 92 0.6 SSE 24 33 13 18 1021.3 1019.9 0.0
22/05:00am 9.6 4.6 7.9 89 0.8 SSE 24 33 13 18 1021.4 1020.1 0.0
22/04:30am 9.5 4.5 8.1 91 0.7 SSE 24 33 13 18 1021.4 1020.1 0.0
22/04:00am 9.6 4.6 7.9 89 0.8 SSE 24 30 13 16 1021.5 1020.2 0.0
22/03:30am 9.7 3.9 8.0 89 0.8 SSE 28 35 15 19 1021.6 1020.3 0.0
22/03:00am 9.5 4.6 8.3 92 0.6 SSE 24 35 13 19 1021.7 1020.4 0.0
22/02:30am 9.9 4.1 8.0 88 0.9 SSE 28 35 15 19 1022.0 1020.7 0.0
22/02:00am 10.1 3.9 7.7 85 1.2 SSE 30 43 16 23 1022.3 1021.0 0.0
22/01:30am 10.4 3.9 8.0 85 1.2 SSE 32 43 17 23 1022.5 1021.2 0.0
22/01:00am 10.5 4.3 7.7 83 1.4 SSE 30 37 16 20 1022.6 1021.3 0.0
22/12:30am 10.3 4.9 7.9 85 1.2 SSE 26 37 14 20 1022.6 1021.3 0.0
22/12:00am 10.1 5.1 7.9 86 1.1 SSE 24 32 13 17 1022.6 1021.3 0.0
 
Date/Time
EDT
Temp
°C
App
Temp
°C
Dew
Point
°C
Rel
Hum
%
Delta-T
°C
Wind Press
QNH
hPa
Press
MSL
hPa
Rain since
9am
mm
Dir  Spd
km/h
Gust
km/h
Spd
kts
Gust
kts
21/11:30pm 10.4 5.4 8.2 86 1.1 SSE 24 33 13 18 1022.7 1021.4 0.0
21/11:00pm 10.5 5.6 8.3 86 1.1 SSE 24 35 13 19 1022.7 1021.4 0.0
21/10:30pm 10.5 6.2 7.9 84 1.3 SSE 20 30 11 16 1022.6 1021.3 0.0
21/10:00pm 10.8 6.1 7.9 82 1.4 SSE 22 30 12 16 1022.4 1021.1 0.0
21/09:30pm 11.3 6.2 7.8 79 1.7 SSE 24 33 13 18 1022.2 1020.9 0.0
21/09:00pm 11.8 5.5 7.3 74 2.2 SSE 30 37 16 20 1021.8 1020.5 0.0
21/08:30pm 12.3 6.3 7.0 70 2.6 SSE 28 37 15 20 1021.4 1020.1 0.0
21/08:00pm 13.1 6.7 7.1 67 3.0 SSE 30 37 16 20 1021.1 1019.7 0.0
21/07:30pm 14.3 7.9 7.1 62 3.6 SE 30 39 16 21 1020.8 1019.4 0.0
21/07:00pm 15.4 9.2 7.9 61 3.8 SE 30 39 16 21 1020.6 1019.2 0.0
21/06:30pm 16.3 10.4 7.5 56 4.5 SE 28 37 15 20 1020.3 1019.0 0.0
21/06:00pm 16.7 10.2 8.1 57 4.4 SSE 32 39 17 21 1020.1 1018.8 0.0
21/05:30pm 17.7 12.8 8.3 54 4.9 SSE 24 35 13 19 1019.9 1018.6 0.0
21/05:00pm 16.2 10.9 8.4 60 4.0 S 26 35 14 19 1020.1 1018.8 0.0
21/04:30pm 16.7 11.3 9.4 62 3.9 SE 28 37 15 20 1020.2 1018.9 0.0
21/04:00pm 16.0 10.5 9.2 64 3.6 SSE 28 37 15 20 1020.4 1019.1 0.0
21/03:30pm 15.1 9.6 10.7 75 2.4 SE 30 35 16 19 1020.9 1019.5 0.0
21/03:00pm 16.6 11.6 10.9 69 3.1 SSE 28 37 15 20 1020.9 1019.5 0.0
21/02:30pm 14.0 7.7 11.2 83 1.5 S 35 48 19 26 1021.1 1019.7 0.0
21/02:00pm 16.7 12.0 12.0 74 2.6 SSE 28 37 15 20 1020.9 1019.5 0.0
21/01:30pm 15.0 9.1 11.2 78 2.1 S 33 43 18 23 1021.0 1019.6 0.0
21/01:00pm 15.6 9.9 9.9 69 3.0 S 30 41 16 22 1021.0 1019.6 0.0
21/12:30pm 15.3 10.3 10.9 75 2.4 SSE 28 35 15 19 1021.1 1019.7 0.0
21/12:00pm 14.9 10.3 9.5 70 2.8 S 24 33 13 18 1021.1 1019.7 0.0
21/11:30am 14.9 9.9 9.5 70 2.8 S 26 33 14 18 1020.9 1019.5 0.0
21/11:00am 17.0 12.0 9.4 61 4.0 SSE 26 33 14 18 1020.7 1019.3 0.0
21/10:30am 15.7 9.6 9.6 67 3.2 SSE 32 41 17 22 1020.6 1019.2 0.0
21/10:13am 14.4 8.3 9.8 74 2.4 SSE 32 41 17 22 1020.3 1019.0 0.0
21/10:00am 13.9 8.0 10.3 79 1.9 SSE 32 43 17 23 1020.2 1018.9 0.0
21/09:30am 13.3 8.3 10.8 85 1.3 S 28 35 15 19 1020.0 1018.7 0.0
21/09:00am 11.9 7.5 11.6 98 0.2 S 26 35 14 19 1019.8 1018.5 0.0
21/08:30am 11.1 7.2 10.9 99 0.1 S 22 28 12 15 1019.5 1018.2 0.0
21/08:00am 10.8 6.5 10.6 99 0.1 S 24 32 13 17 1019.0 1017.6 0.0
21/07:30am 10.7 7.1 10.7 100 0.0 S 20 32 11 17 1018.7 1017.3 0.0
21/07:00am 10.4 6.4 10.4 100 0.0 SSE 22 24 12 13 1018.5 1017.1 0.0
21/06:30am 10.3 6.6 10.3 100 0.0 S 20 28 11 15 1018.2 1016.8 0.0
21/06:22am 10.3 6.6 10.3 100 0.0 S 20 28 11 15 1018.0 1016.7 0.0
21/06:17am 10.1 6.4 10.1 100 0.0 S 20 28 11 15 1017.9 1016.6 0.0
21/06:00am 10.1 6.6 10.1 100 0.0 S 19 24 10 13 1017.7 1016.4 0.0
21/05:35am 10.2 6.7 10.2 100 0.0 S 19 24 10 13 1017.7 1016.4 0.0
21/05:30am 10.1 6.6 10.1 100 0.0 S 19 24 10 13 1017.7 1016.4 0.0
21/05:21am 10.2 6.7 10.2 100 0.0 S 19 26 10 14 1017.7 1016.4 0.0
21/05:00am 10.1 7.3 10.1 100 0.0 S 15 19 8 10 1017.6 1016.3 0.0
21/04:30am 10.0 7.2 9.9 99 0.1 S 15 20 8 11 1017.8 1016.5 0.0
21/04:00am 9.5 6.5 9.2 98 0.2 S 15 19 8 10 1017.7 1016.4 0.0
21/03:43am 9.8 5.9 9.5 98 0.2 S 20 28 11 15 1017.9 1016.6 0.0
21/03:30am 10.1 6.8 9.6 97 0.3 S 17 22 9 12 1018.0 1016.7 0.0
21/03:00am 10.1 7.0 8.9 92 0.6 S 15 20 8 11 1018.3 1016.9 0.0
21/02:30am 11.0 7.5 8.9 87 1.1 S 17 24 9 13 1018.5 1017.1 0.0
21/02:00am 11.0 7.9 8.9 87 1.1 S 15 20 8 11 1018.5 1017.1 0.0
21/01:30am 11.0 7.0 8.9 87 1.1 S 20 26 11 14 1018.5 1017.1 0.0
21/01:00am 11.1 7.0 8.7 85 1.2 S 20 28 11 15 1018.6 1017.2 0.0
21/12:30am 11.2 7.2 8.9 86 1.2 S 20 30 11 16 1018.5 1017.1 0.0
21/12:00am 11.3 7.2 8.5 83 1.4 S 20 30 11 16 1018.6 1017.2 0.0
 
Date/Time
EDT
Temp
°C
App
Temp
°C
Dew
Point
°C
Rel
Hum
%
Delta-T
°C
Wind Press
QNH
hPa
Press
MSL
hPa
Rain since
9am
mm
Dir  Spd
km/h
Gust
km/h
Spd
kts
Gust
kts
20/11:30pm 11.3 7.5 8.9 85 1.2 SSW 19 26 10 14 1018.6 1017.2 0.0
20/11:00pm 11.4 7.4 9.0 85 1.2 S 20 30 11 16 1018.7 1017.3 0.0
20/10:30pm 11.8 7.8 9.0 83 1.4 S 20 30 11 16 1018.6 1017.2 0.0
20/10:00pm 12.3 7.8 8.6 78 1.9 SSW 22 32 12 17 1018.3 1016.9 0.0
20/09:30pm 12.6 8.8 8.9 78 1.9 S 19 26 10 14 1017.8 1016.5 0.0
20/09:00pm 12.8 8.8 9.1 78 1.9 S 20 30 11 16 1017.5 1016.2 0.0
20/08:30pm 13.2 8.0 8.9 75 2.2 S 26 33 14 18 1017.0 1015.6 0.0
20/08:00pm 14.4 10.5 8.8 69 2.9 SSW 19 28 10 15 1016.8 1015.4 0.0
20/07:30pm 15.2 11.2 9.1 67 3.2 SSW 20 32 11 17 1016.2 1014.8 0.0
20/07:00pm 16.4 12.2 8.1 58 4.3 SSW 20 28 11 15 1016.0 1014.6 0.0
20/06:30pm 16.7 11.9 8.7 59 4.2 S 24 32 13 17 1015.9 1014.5 0.0
20/06:00pm 16.7 12.2 8.4 58 4.3 S 22 28 12 15 1015.5 1014.2 0.0
20/05:30pm 17.3 13.3 8.2 55 4.7 SSW 19 28 10 15 1015.5 1014.2 0.0
20/05:00pm 17.0 13.3 7.9 55 4.7 SSW 17 28 9 15 1015.8 1014.4 0.0
20/04:30pm 17.6 13.5 8.5 55 4.8 SSW 20 30 11 16 1015.7 1014.3 0.0
20/04:00pm 17.2 13.4 8.9 58 4.4 SSW 19 30 10 16 1016.0 1014.6 0.0
20/03:30pm 16.0 10.9 7.5 57 4.3 SSE 24 35 13 19 1016.3 1014.9 0.0
20/03:00pm 16.6 12.0 8.3 58 4.3 S 22 33 12 18 1016.4 1015.0 0.0
20/02:30pm 15.9 10.9 6.6 54 4.7 S 22 35 12 19 1016.8 1015.4 0.0
20/02:00pm 16.6 12.1 8.6 59 4.2 SSW 22 30 12 16 1016.8 1015.4 0.0
20/01:30pm 14.8 9.7 7.6 62 3.7 S 24 32 13 17 1017.0 1015.6 0.0
20/01:00pm 15.1 10.4 7.9 62 3.7 S 22 32 12 17 1017.1 1015.7 0.0
20/12:30pm 14.9 9.7 7.2 60 3.9 S 24 32 13 17 1017.2 1015.8 0.0
20/12:00pm 13.7 9.2 6.8 63 3.4 SSW 20 28 11 15 1017.5 1016.2 0.0
20/11:30am 14.1 9.7 7.6 65 3.3 S 20 26 11 14 1017.4 1016.1 0.0
20/11:00am 12.8 8.0 7.5 70 2.6 SSW 22 30 12 16 1017.3 1016.0 0.0
20/10:30am 12.2 7.8 7.3 72 2.4 SSW 20 30 11 16 1017.2 1015.8 0.0
20/10:00am 11.6 6.8 7.5 76 2.0 S 22 33 12 18 1016.9 1015.5 0.0
20/09:30am 11.4 6.7 7.7 78 1.8 S 22 30 12 16 1016.5 1015.1 0.0
20/09:00am 11.0 6.2 7.5 79 1.7 SSW 22 30 12 16 1016.3 1014.9 0.0
20/08:30am 10.8 6.1 7.9 82 1.4 S 22 32 12 17 1016.1 1014.7 0.0
20/08:00am 10.5 5.8 7.6 82 1.4 S 22 30 12 16 1015.5 1014.2 0.0
20/07:30am 10.4 6.0 7.5 82 1.4 S 20 28 11 15 1015.2 1013.8 0.0
20/07:00am 10.3 5.9 7.4 82 1.4 S 20 26 11 14 1014.7 1013.3 0.0
20/06:30am 10.4 5.9 7.1 80 1.6 S 20 26 11 14 1014.5 1013.1 0.0
20/06:00am 10.3 5.5 7.2 81 1.5 S 22 28 12 15 1014.4 1013.0 0.0
20/05:30am 10.3 6.2 7.9 85 1.2 S 19 26 10 14 1014.2 1012.8 0.0
20/05:00am 10.2 6.1 8.0 86 1.1 S 19 28 10 15 1014.6 1013.2 0.0
20/04:30am 10.1 7.0 8.9 92 0.6 SSW 15 22 8 12 1014.8 1013.4 0.0
20/04:00am 10.1 6.7 9.0 93 0.6 SSW 17 22 9 12 1014.6 1013.2 0.0
20/03:30am 10.0 6.6 9.2 95 0.4 SSW 17 26 9 14 1014.4 1013.0 0.0
20/03:00am 10.0 6.6 9.2 95 0.4 SSW 17 26 9 14 1014.6 1013.2 0.0
20/02:30am 10.1 6.9 9.8 98 0.2 SSW 17 22 9 12 1015.0 1013.6 0.0
20/02:00am 10.1 6.9 9.8 98 0.2 SSW 17 22 9 12 1015.1 1013.7 0.0
20/01:30am 9.7 6.7 9.4 98 0.2 SSW 15 20 8 11 1015.3 1014.0 0.0
20/01:00am 10.3 7.5 10.0 98 0.2 SSW 15 20 8 11 1015.4 1014.1 0.0
20/12:30am 10.6 7.5 10.3 98 0.2 S 17 26 9 14 1015.2 1013.8 0.0
20/12:00am 10.4 6.9 10.1 98 0.2 SSW 19 26 10 14 1015.3 1014.0 0.0
 
Date/Time
EDT
Temp
°C
App
Temp
°C
Dew
Point
°C
Rel
Hum
%
Delta-T
°C
Wind Press
QNH
hPa
Press
MSL
hPa
Rain since
9am
mm
Dir  Spd
km/h
Gust
km/h
Spd
kts
Gust
kts
19/11:30pm 10.5 7.4 10.2 98 0.2 SSW 17 26 9 14 1015.7 1014.3 0.0
19/11:00pm 10.6 7.4 10.1 97 0.3 SSW 17 24 9 13 1015.7 1014.3 0.0
19/10:30pm 11.0 7.6 10.4 96 0.3 SSW 19 26 10 14 1015.5 1014.2 0.0
19/10:00pm 11.3 8.0 10.8 97 0.3 SSW 19 24 10 13 1015.1 1013.7 0.0
19/09:30pm 11.6 8.2 11.3 98 0.2 SSW 20 30 11 16 1014.8 1013.4 0.0
19/09:07pm 11.7 8.0 11.4 98 0.2 SSW 22 32 12 17 1014.9 1013.5 0.0
19/09:00pm 11.8 8.5 11.5 98 0.2 SSW 20 32 11 17 1014.8 1013.4 0.0
19/08:30pm 12.3 8.7 12.0 98 0.2 SSW 22 33 12 18 1014.7 1013.3 0.0
19/08:00pm 12.4 8.5 12.1 98 0.2 SSW 24 35 13 19 1014.5 1013.1 0.0
19/07:30pm 12.6 9.6 12.4 99 0.1 SSW 20 32 11 17 1014.3 1012.9 0.0
19/07:16pm 12.6 9.7 12.3 98 0.2 SSW 19 24 10 13 1014.1 1012.7 0.0
19/07:00pm 12.4 8.1 12.1 98 0.2 SSW 26 43 14 23 1014.0 1012.6 0.0
19/06:30pm 13.3 9.5 12.5 95 0.4 SSW 24 43 13 23 1013.9 1012.5 0.0
19/06:00pm 13.6 10.0 11.8 89 1.0 SW 22 35 12 19 1013.7 1012.3 0.0
19/05:30pm 15.0 9.9 10.6 75 2.4 SSW 28 48 15 26 1013.6 1012.2 0.0
19/05:12pm 16.3 11.0 9.9 66 3.4 SW 28 46 15 25 1013.3 1011.8 0.0
19/05:00pm 15.2 10.1 10.6 74 2.5 SW 28 39 15 21 1013.3 1011.8 0.0
19/04:41pm 15.8 10.8 10.8 72 2.7 SSW 28 46 15 25 1013.1 1011.7 0.0
19/04:30pm 14.6 8.3 9.8 73 2.5 SSW 33 48 18 26 1013.4 1012.0 0.0
19/04:25pm 15.1 9.6 10.5 74 2.5 SSW 30 48 16 26 1013.3 1011.8 0.0
19/04:00pm 14.5 8.4 10.5 77 2.1 SSW 33 46 18 25 1013.1 1011.7 0.0
19/03:43pm 15.9 10.6 10.0 68 3.2 SW 28 48 15 26 1013.0 1011.6 0.0

Other formats

Comma delimited format used in spreadsheet applications
http://www.bom.gov.au/fwo/IDV60801/IDV60801.94852.axf

JavaScript Object Notation format (JSON) in row-major order
http://www.bom.gov.au/fwo/IDV60801/IDV60801.94852.json

Data quality

Most of these data are generated automatically and are frequently updated. Quality checks on data are not normally performed. It is possible for incorrect values to appear. Refer to information at About Latest Weather Observations and please check the disclaimer before using these data.